createdAt,value
2019-03-25T00:03:24.977Z,97008.16
2019-03-25T00:07:26.893Z,97002.47
2019-03-25T00:11:28.805Z,97013.98
2019-03-25T00:15:30.705Z,97007.88
2019-03-25T00:19:32.649Z,97003.09
2019-03-25T00:23:34.566Z,97001.17
2019-03-25T00:27:36.470Z,96999.30
2019-03-25T00:31:38.391Z,96991.13
2019-03-25T00:35:40.553Z,96987.95
2019-03-25T00:39:43.429Z,96982.99
2019-03-25T00:43:45.338Z,96979.43
2019-03-25T00:47:47.245Z,96974.20
2019-03-25T00:51:49.162Z,96971.96
2019-03-25T00:55:51.083Z,96969.27
2019-03-25T00:59:53.321Z,96959.77
2019-03-25T01:03:55.310Z,96956.00
2019-03-25T01:07:57.247Z,96941.47
2019-03-25T01:11:59.161Z,96942.02
2019-03-25T01:16:03.564Z,96931.70
2019-03-25T01:20:10.458Z,96930.03
2019-03-25T01:24:12.431Z,96922.68
2019-03-25T01:28:15.160Z,96929.27
2019-03-25T01:32:17.084Z,96919.23
2019-03-25T01:36:18.991Z,96926.30
2019-03-25T01:40:20.904Z,96928.95
2019-03-25T01:44:22.805Z,96924.58
2019-03-25T01:48:24.720Z,96915.03
2019-03-25T01:52:26.611Z,96919.24
2019-03-25T01:56:28.513Z,96906.52
2019-03-25T02:00:30.468Z,96904.09
2019-03-25T02:04:32.378Z,96897.90
2019-03-25T02:08:34.304Z,96894.27
2019-03-25T02:12:36.212Z,96883.70
2019-03-25T02:16:38.123Z,96886.77
2019-03-25T02:20:40.035Z,96889.19
2019-03-25T02:24:42.245Z,96889.02
2019-03-25T02:28:44.141Z,96882.27
2019-03-25T02:32:46.060Z,96881.05
2019-03-25T02:36:48.013Z,96874.69
2019-03-25T02:40:49.923Z,96885.20
2019-03-25T02:44:51.830Z,96879.02
2019-03-25T02:48:53.744Z,96877.81
2019-03-25T02:52:58.969Z,96873.16
2019-03-25T02:57:02.945Z,96869.72
2019-03-25T03:01:04.936Z,96871.73
2019-03-25T03:05:08.530Z,96867.01
2019-03-25T03:25:56.388Z,96854.52
2019-03-25T03:29:45.932Z,96854.20
2019-03-25T03:33:47.882Z,96851.78
2019-03-25T03:37:50.017Z,96839.53
2019-03-25T03:41:51.911Z,96838.11
2019-03-25T03:45:53.879Z,96842.64
2019-03-25T03:49:55.771Z,96843.73
2019-03-25T03:53:58.217Z,96844.52
2019-03-25T03:58:03.450Z,96842.98
2019-03-25T04:02:05.356Z,96842.28
2019-03-25T04:06:07.265Z,96840.14
2019-03-25T04:10:09.513Z,96839.32
2019-03-25T04:14:11.603Z,96835.27
2019-03-25T04:18:13.504Z,96839.30
2019-03-25T04:22:15.407Z,96834.15
2019-03-25T04:26:28.590Z,96833.11
2019-03-25T04:30:21.044Z,96833.09
2019-03-25T04:34:22.944Z,96833.88
2019-03-25T04:38:44.172Z,96837.87
2019-03-25T04:42:54.382Z,96840.30
2019-03-25T04:46:56.483Z,96840.77
2019-03-25T04:50:58.458Z,96840.95
2019-03-25T04:55:00.445Z,96843.08
2019-03-25T04:59:02.682Z,96843.55
2019-03-25T05:03:05.074Z,96854.33
2019-03-25T05:07:07.048Z,96846.52
2019-03-25T05:11:08.997Z,96851.61
2019-03-25T05:15:11.350Z,96848.58
2019-03-25T05:19:13.263Z,96845.71
2019-03-25T05:23:15.170Z,96843.67
2019-03-25T05:27:17.094Z,96834.45
2019-03-25T05:31:18.984Z,96832.78
2019-03-25T05:35:20.900Z,96837.04
2019-03-25T05:39:22.795Z,96830.48
2019-03-25T05:43:24.712Z,96829.30
2019-03-25T05:47:26.662Z,96835.03
2019-03-25T05:51:28.643Z,96827.73
2019-03-25T05:55:30.550Z,96824.88
2019-03-25T05:59:32.469Z,96830.89
2019-03-25T06:03:34.402Z,96831.63
2019-03-25T06:07:36.328Z,96831.27
2019-03-25T06:11:38.231Z,96831.17
2019-03-25T06:15:40.168Z,96838.20
2019-03-25T06:19:42.333Z,96841.97
2019-03-25T06:23:44.244Z,96848.58
2019-03-25T06:27:46.784Z,96849.81
2019-03-25T06:31:48.746Z,96848.50
2019-03-25T06:35:50.683Z,96831.59
2019-03-25T06:39:52.602Z,96846.20
2019-03-25T06:43:54.499Z,96842.61
2019-03-25T06:47:56.489Z,96847.48
2019-03-25T06:51:59.304Z,96840.92
2019-03-25T06:56:04.321Z,96846.91
2019-03-25T07:00:09.459Z,96841.38
2019-03-25T07:04:11.434Z,96845.80
2019-03-25T07:16:30.149Z,96824.19
2019-03-25T07:20:32.061Z,96822.81
2019-03-25T07:24:33.956Z,96817.66
2019-03-25T07:28:35.935Z,96832.45
2019-03-25T07:32:44.809Z,96821.48
2019-03-25T07:36:46.698Z,96829.58
2019-03-25T07:40:48.679Z,96834.15
2019-03-25T07:44:50.595Z,96830.47
2019-03-25T07:48:52.780Z,96825.23
2019-03-25T07:52:54.668Z,96818.71
2019-03-25T07:56:56.605Z,96817.02
2019-03-25T08:00:58.513Z,96803.17
2019-03-25T08:05:00.435Z,96801.45
2019-03-25T08:09:04.025Z,96797.93
2019-03-25T08:13:06.314Z,96796.49
2019-03-25T08:17:08.260Z,96785.47
2019-03-25T08:21:10.164Z,96794.25
2019-03-25T08:25:12.556Z,96798.50
2019-03-25T08:29:14.459Z,96812.25
2019-03-25T08:33:16.440Z,96792.84
2019-03-25T08:37:21.818Z,96788.49
2019-03-25T08:41:23.715Z,96778.33
2019-03-25T08:45:25.655Z,96798.26
2019-03-25T08:49:27.568Z,96806.36
2019-03-25T08:53:29.518Z,96819.16
2019-03-25T08:57:31.417Z,96809.16
2019-03-25T09:01:33.347Z,96812.47
2019-03-25T09:05:35.236Z,96819.63
2019-03-25T09:09:37.146Z,96829.23
2019-03-25T09:13:39.039Z,96833.05
2019-03-25T09:17:41.057Z,96827.58
2019-03-25T09:21:43.018Z,96833.33
2019-03-25T09:25:45.017Z,96821.02
2019-03-25T09:29:46.939Z,96813.64
2019-03-25T09:33:51.191Z,96810.65
2019-03-25T09:37:53.085Z,96803.78
2019-03-25T09:41:54.992Z,96810.73
2019-03-25T09:45:56.884Z,96809.70
2019-03-25T09:49:58.789Z,96821.11
2019-03-25T09:54:00.697Z,96818.83
2019-03-25T09:58:05.491Z,96813.27
2019-03-25T10:02:07.586Z,96817.75
2019-03-25T10:06:09.544Z,96806.70
2019-03-25T10:10:11.754Z,96825.81
2019-03-25T10:14:13.657Z,96831.78
2019-03-25T10:18:15.544Z,96840.56
2019-03-25T10:22:17.541Z,96842.48
2019-03-25T10:26:22.636Z,96840.06
2019-03-25T10:30:25.323Z,96836.56
2019-03-25T10:34:27.230Z,96833.94
2019-03-25T10:38:30.230Z,96824.00
2019-03-25T10:42:32.140Z,96821.72
2019-03-25T10:46:34.102Z,96821.11
2019-03-25T10:50:36.547Z,96819.16
2019-03-25T10:54:38.523Z,96820.72
2019-03-25T10:58:40.523Z,96824.39
2019-03-25T11:02:42.414Z,96815.53
2019-03-25T11:06:48.120Z,96805.02
2019-03-25T11:10:49.106Z,96797.56
2019-03-25T11:14:51.014Z,96786.94
2019-03-25T11:18:53.162Z,96778.69
2019-03-25T11:22:55.877Z,96769.55
2019-03-25T11:26:57.825Z,96767.41
2019-03-25T11:31:00.235Z,96766.52
2019-03-25T11:35:05.615Z,96771.94
2019-03-25T11:39:09.309Z,96774.63
2019-03-25T11:43:11.209Z,96773.10
2019-03-25T11:47:13.203Z,96778.33
2019-03-25T11:51:15.189Z,96780.09
2019-03-25T11:55:17.896Z,96805.25
2019-03-25T11:59:19.955Z,96830.84
2019-03-25T12:03:21.923Z,96847.73
2019-03-25T12:07:23.811Z,96858.99
2019-03-25T12:11:25.716Z,96848.93
2019-03-25T12:15:27.615Z,96868.52
2019-03-25T12:19:29.625Z,96866.06
2019-03-25T12:23:31.511Z,96862.98
2019-03-25T12:27:33.502Z,96848.72
2019-03-25T12:31:35.405Z,96826.33
2019-03-25T12:35:37.530Z,96820.65
2019-03-25T12:39:39.429Z,96813.16
2019-03-25T12:43:42.562Z,96802.95
2019-03-25T12:47:44.444Z,96797.91
2019-03-25T12:51:48.358Z,96803.88
2019-03-25T12:55:49.942Z,96795.90
2019-03-25T12:59:51.847Z,96790.09
2019-03-25T13:03:53.774Z,96775.85
2019-03-25T13:07:55.680Z,96783.21
2019-03-25T13:11:57.572Z,96781.70
2019-03-25T13:15:59.469Z,96794.09
2019-03-25T13:20:04.662Z,96778.73
2019-03-25T13:24:08.073Z,96779.13
2019-03-25T13:28:09.957Z,96774.69
2019-03-25T13:32:11.862Z,96755.58
2019-03-25T13:36:13.777Z,96760.49
2019-03-25T13:40:16.288Z,96754.36
2019-03-25T13:44:18.190Z,96754.11
2019-03-25T13:48:20.096Z,96751.55
2019-03-25T13:52:22.005Z,96756.61
2019-03-25T13:56:23.919Z,96765.77
2019-03-25T14:00:37.790Z,96769.80
2019-03-25T14:04:39.689Z,96778.09
2019-03-25T14:08:42.653Z,96767.16
2019-03-25T14:12:44.563Z,96771.68
2019-03-25T14:16:49.356Z,96757.84
2019-03-25T14:20:50.067Z,96759.44
2019-03-25T14:24:51.979Z,96759.65
2019-03-25T14:28:53.974Z,96789.19
2019-03-25T14:32:55.882Z,96850.27
2019-03-25T14:36:57.794Z,96883.03
2019-03-25T14:40:59.696Z,96876.89
2019-03-25T14:45:04.738Z,96895.30
2019-03-25T14:49:06.714Z,96894.50
2019-03-25T14:53:08.598Z,96884.15
2019-03-25T14:57:10.719Z,96871.89
2019-03-25T15:01:12.607Z,96876.44
2019-03-25T15:05:15.401Z,96861.56
2019-03-25T15:09:17.304Z,96872.73
2019-03-25T15:13:19.179Z,96853.87
2019-03-25T15:17:21.079Z,96858.48
2019-03-25T15:21:22.981Z,96863.44
2019-03-25T15:25:24.867Z,96855.09
2019-03-25T15:29:26.781Z,96856.84
2019-03-25T15:33:28.685Z,96851.03
2019-03-25T15:37:30.607Z,96847.73
2019-03-25T15:41:32.509Z,96858.92
2019-03-25T15:45:34.598Z,96855.26
2019-03-25T15:49:36.482Z,96859.18
2019-03-25T15:53:38.379Z,96878.88
2019-03-25T15:57:53.965Z,96885.76
2019-03-25T16:01:55.952Z,96895.42
2019-03-25T16:05:57.843Z,96900.45
2019-03-25T16:09:59.735Z,96891.48
2019-03-25T16:14:01.615Z,96889.92
2019-03-25T16:18:06.656Z,96892.38
2019-03-25T16:22:09.161Z,96901.57
2019-03-25T16:26:11.077Z,96907.92
2019-03-25T16:30:13.236Z,96915.55
2019-03-25T16:34:15.122Z,96921.76
2019-03-25T16:38:17.109Z,96929.13
2019-03-25T16:42:19.011Z,96935.26
2019-03-25T16:46:21.385Z,96929.39
2019-03-25T16:50:23.286Z,96933.84
2019-03-25T16:54:25.179Z,96943.94
2019-03-25T16:58:27.084Z,96940.30
2019-03-25T17:02:28.980Z,96946.90
2019-03-25T17:06:30.887Z,96942.28
2019-03-25T17:10:32.789Z,96944.58
2019-03-25T17:14:34.678Z,96950.83
2019-03-25T17:18:36.556Z,96947.58
2019-03-25T17:22:38.495Z,96949.04
2019-03-25T17:26:42.553Z,96956.27
2019-03-25T17:30:43.976Z,96966.55
2019-03-25T17:34:45.872Z,96970.17
2019-03-25T17:38:47.770Z,96979.39
2019-03-25T17:42:49.715Z,96989.09
2019-03-25T17:46:52.580Z,96982.53
2019-03-25T17:50:54.466Z,96997.83
2019-03-25T17:54:56.406Z,97003.45
2019-03-25T17:58:58.331Z,97014.55
2019-03-25T18:03:10.561Z,97016.53
2019-03-25T18:07:22.170Z,97028.37
2019-03-25T18:11:34.326Z,97032.81
2019-03-25T18:15:36.331Z,97037.52
2019-03-25T18:19:38.231Z,97049.00
2019-03-25T18:23:40.126Z,97051.13
2019-03-25T18:27:42.831Z,97057.81
2019-03-25T18:31:44.732Z,97057.13
2019-03-25T18:35:47.588Z,97067.94
2019-03-25T18:39:49.484Z,97080.30
2019-03-25T18:43:51.394Z,97088.29
2019-03-25T18:47:53.509Z,97092.11
2019-03-25T18:51:55.438Z,97096.61
2019-03-25T18:55:57.409Z,97099.12
2019-03-25T18:59:59.319Z,97103.09
2019-03-25T19:04:04.416Z,97122.17
2019-03-25T19:08:08.802Z,97134.16
2019-03-25T19:12:10.684Z,97131.85
2019-03-25T19:16:13.552Z,97134.80
2019-03-25T19:20:15.474Z,97134.50
2019-03-25T19:24:17.364Z,97140.18
2019-03-25T19:28:19.248Z,97145.90
2019-03-25T19:32:21.879Z,97151.16
2019-03-25T19:36:23.774Z,97150.56
2019-03-25T19:40:25.647Z,97156.80
2019-03-25T19:44:27.559Z,97170.59
2019-03-25T19:48:29.463Z,97177.12
2019-03-25T19:52:31.333Z,97188.89
2019-03-25T19:56:33.231Z,97202.47
2019-03-25T20:00:39.213Z,97208.83
2019-03-25T20:04:41.212Z,97209.83
2019-03-25T20:08:43.280Z,97212.16
2019-03-25T20:12:45.220Z,97202.39
2019-03-25T20:16:47.136Z,97216.09
2019-03-25T20:20:49.050Z,97218.37
2019-03-25T20:24:50.927Z,97220.83
2019-03-25T20:28:52.851Z,97227.70
2019-03-25T20:32:54.723Z,97239.95
2019-03-25T20:36:56.609Z,97251.08
2019-03-25T20:40:58.500Z,97256.16
2019-03-25T20:45:00.413Z,97267.43
2019-03-25T20:49:02.559Z,97279.86
2019-03-25T20:53:04.641Z,97288.83
2019-03-25T20:57:06.583Z,97296.82
2019-03-25T21:01:08.470Z,97295.03
2019-03-25T21:05:11.408Z,97305.79
2019-03-25T21:09:32.556Z,97306.94
2019-03-25T21:13:38.058Z,97317.67
2019-03-25T21:17:39.965Z,97317.67
2019-03-25T21:21:42.896Z,97328.47
2019-03-25T21:25:44.780Z,97340.55
2019-03-25T21:29:46.652Z,97339.25
2019-03-25T21:33:48.753Z,97335.98
2019-03-25T21:37:50.748Z,97333.21
2019-03-25T21:41:52.678Z,97340.86
2019-03-25T21:45:54.652Z,97340.06
2019-03-25T21:49:56.655Z,97343.48
2019-03-25T21:53:58.568Z,97354.61
2019-03-25T21:58:00.616Z,97350.34
2019-03-25T22:02:02.724Z,97359.83
2019-03-25T22:06:04.630Z,97353.30
2019-03-25T22:10:08.420Z,97351.01
2019-03-25T22:14:10.321Z,97359.00
2019-03-25T22:18:12.233Z,97356.09
2019-03-25T22:22:14.144Z,97361.13
2019-03-25T22:26:16.070Z,97367.00
2019-03-25T22:30:18.134Z,97366.34
2019-03-25T22:34:20.104Z,97365.84
2019-03-25T22:38:22.003Z,97369.28
2019-03-25T22:42:24.071Z,97373.50
2019-03-25T22:46:25.973Z,97369.92
2019-03-25T22:50:30.495Z,97373.16
2019-03-25T22:54:32.442Z,97387.20
2019-03-25T22:58:34.523Z,97382.95
2019-03-25T23:02:36.419Z,97390.42
2019-03-25T23:06:38.319Z,97409.34
2019-03-25T23:10:40.196Z,97411.95
2019-03-25T23:14:44.868Z,97411.30
2019-03-25T23:18:47.032Z,97414.05
2019-03-25T23:22:48.923Z,97423.99
2019-03-25T23:26:51.822Z,97431.81
2019-03-25T23:30:53.771Z,97447.61
2019-03-25T23:34:55.680Z,97452.03
2019-03-25T23:38:57.634Z,97446.88
2019-03-25T23:42:59.531Z,97457.84
2019-03-25T23:47:01.895Z,97468.45
2019-03-25T23:51:03.849Z,97472.38
2019-03-25T23:55:07.503Z,97476.30
2019-03-25T23:59:09.381Z,97477.95
